Main page
METAR-TAF:

METAR-TAF

Airports :

Albert, France

Albert – Picardie Airport

latitude: 49-58-21N, longitude: 002-41-29E, elevation: 111 m

Current weather observation

The report was made 34 minutes ago, at 13:00 UTC
Wind 17 kt from the West with gusts up to 28 kt, varying between West/Southwest and Northwest
Temperature 11°C
Humidity 71%
Pressure 1015 hPa
Visibility 10 km or more
Broken clouds at a height of 3800 ft
Broken clouds at a height of 4500 ft
Broken clouds at a height of 7400 ft

METAR: LFAQ 221300Z AUTO 27017G28KT 240V310 9999 BKN038 BKN045 BKN074 11/06 Q1015 NOSIG

Time: 15:34 (13:34 UTC)

Forecast

The report was made 2 hours and 34 minutes ago, at 11:00 UTC
Forecast valid from 22 at 12 UTC to 22 at 21 UTC
Wind 13 kt from the West
Visibility 10 km or more
Broken clouds at a height of 3500 ft
Temporary
from 22 at 12 UTC to 22 at 16 UTC
Wind 15 kt from the Southwest with gusts up to 25 kt

TAF: LFAQ 221100Z 2212/2221 26013KT 9999 BKN035 TEMPO 2212/2216 23015G25KT

Weather observations and forecasts of more than 4000 airports (METAR and TAF reports).

The available stations are represented by yellow and red dots on the map.

Hover mouse over dot to see the name of the station.

Then click to see weather observations and forecasts.

To change the map : click on the green buttons with a black cross to zoom in, on the green button with a dash to zoom out, or on the green arrows for adjacent maps.


METAR-TAF: